sensor_id;sensor_type;location;lat;lon;timestamp;pressure;altitude;pressure_sealevel;temperature;humidity
52935;BME280;38802;50.198;19.796;2022-07-03T00:00:55;96848.94;;;13.86;80.88
52935;BME280;38802;50.198;19.796;2022-07-03T00:03:23;96852.33;;;13.84;81.01
52935;BME280;38802;50.198;19.796;2022-07-03T00:05:52;96846.62;;;13.84;81.06
52935;BME280;38802;50.198;19.796;2022-07-03T00:08:20;96843.22;;;13.83;81.15
52935;BME280;38802;50.198;19.796;2022-07-03T00:10:48;96848.87;;;13.82;81.11
52935;BME280;38802;50.198;19.796;2022-07-03T00:13:16;96849.92;;;13.82;80.99
52935;BME280;38802;50.198;19.796;2022-07-03T00:15:44;96844.54;;;13.82;81.20
52935;BME280;38802;50.198;19.796;2022-07-03T00:18:12;96846.77;;;13.82;81.26
52935;BME280;38802;50.198;19.796;2022-07-03T00:20:46;96846.95;;;13.82;81.74
52935;BME280;38802;50.198;19.796;2022-07-03T00:23:16;96847.04;;;13.81;81.53
52935;BME280;38802;50.198;19.796;2022-07-03T00:25:45;96840.89;;;13.79;81.85
52935;BME280;38802;50.198;19.796;2022-07-03T00:28:14;96839.52;;;13.79;82.20
52935;BME280;38802;50.198;19.796;2022-07-03T00:30:47;96834.24;;;13.78;81.99
52935;BME280;38802;50.198;19.796;2022-07-03T00:33:16;96829.97;;;13.77;81.90
52935;BME280;38802;50.198;19.796;2022-07-03T00:35:47;96832.58;;;13.77;82.19
52935;BME280;38802;50.198;19.796;2022-07-03T00:38:18;96834.52;;;13.76;82.01
52935;BME280;38802;50.198;19.796;2022-07-03T00:40:46;96828.58;;;13.76;82.13
52935;BME280;38802;50.198;19.796;2022-07-03T00:43:16;96827.30;;;13.75;82.34
52935;BME280;38802;50.198;19.796;2022-07-03T00:45:47;96831.60;;;13.74;82.46
52935;BME280;38802;50.198;19.796;2022-07-03T00:48:17;96829.75;;;13.73;82.35
52935;BME280;38802;50.198;19.796;2022-07-03T00:50:51;96823.55;;;13.72;82.19
52935;BME280;38802;50.198;19.796;2022-07-03T00:53:32;96816.52;;;13.73;82.47
52935;BME280;38802;50.198;19.796;2022-07-03T00:56:03;96817.48;;;13.72;82.54
52935;BME280;38802;50.198;19.796;2022-07-03T00:58:32;96809.61;;;13.71;82.73
52935;BME280;38802;50.198;19.796;2022-07-03T01:01:04;96808.55;;;13.72;82.95
52935;BME280;38802;50.198;19.796;2022-07-03T01:03:34;96802.75;;;13.72;82.94
52935;BME280;38802;50.198;19.796;2022-07-03T01:06:14;96800.72;;;13.71;83.28
52935;BME280;38802;50.198;19.796;2022-07-03T01:08:47;96795.02;;;13.71;83.31
52935;BME280;38802;50.198;19.796;2022-07-03T01:11:28;96791.97;;;13.70;83.72
52935;BME280;38802;50.198;19.796;2022-07-03T01:17:27;96792.67;;;13.68;83.82
52935;BME280;38802;50.198;19.796;2022-07-03T01:20:04;96787.92;;;13.66;83.26
52935;BME280;38802;50.198;19.796;2022-07-03T01:22:57;96784.54;;;13.65;83.56
52935;BME280;38802;50.198;19.796;2022-07-03T01:25:46;96785.85;;;13.64;83.77
52935;BME280;38802;50.198;19.796;2022-07-03T01:28:19;96790.65;;;13.63;83.50
52935;BME280;38802;50.198;19.796;2022-07-03T01:30:52;96788.36;;;13.63;83.81
52935;BME280;38802;50.198;19.796;2022-07-03T01:36:09;96787.63;;;13.66;83.90
52935;BME280;38802;50.198;19.796;2022-07-03T01:38:41;96788.84;;;13.68;84.28
52935;BME280;38802;50.198;19.796;2022-07-03T01:41:11;96788.48;;;13.70;84.25
52935;BME280;38802;50.198;19.796;2022-07-03T01:43:46;96784.40;;;13.73;84.37
52935;BME280;38802;50.198;19.796;2022-07-03T01:46:18;96781.84;;;13.76;84.42
52935;BME280;38802;50.198;19.796;2022-07-03T01:48:49;96783.20;;;13.76;84.40
52935;BME280;38802;50.198;19.796;2022-07-03T01:51:18;96778.40;;;13.79;84.46
52935;BME280;38802;50.198;19.796;2022-07-03T01:53:48;96782.58;;;13.81;84.61
52935;BME280;38802;50.198;19.796;2022-07-03T01:56:18;96781.13;;;13.84;84.87
52935;BME280;38802;50.198;19.796;2022-07-03T01:58:47;96780.52;;;13.85;84.76
52935;BME280;38802;50.198;19.796;2022-07-03T02:02:00;96778.58;;;13.88;85.04
52935;BME280;38802;50.198;19.796;2022-07-03T02:04:34;96774.59;;;13.87;85.04
52935;BME280;38802;50.198;19.796;2022-07-03T02:07:27;96770.39;;;13.89;85.01
52935;BME280;38802;50.198;19.796;2022-07-03T02:10:06;96768.10;;;13.92;85.22
52935;BME280;38802;50.198;19.796;2022-07-03T02:12:39;96767.45;;;13.93;84.90
52935;BME280;38802;50.198;19.796;2022-07-03T02:15:12;96769.40;;;13.93;85.06
52935;BME280;38802;50.198;19.796;2022-07-03T02:17:44;96766.31;;;13.92;84.90
52935;BME280;38802;50.198;19.796;2022-07-03T02:20:15;96763.80;;;13.93;85.27
52935;BME280;38802;50.198;19.796;2022-07-03T02:22:53;96759.29;;;13.94;85.45
52935;BME280;38802;50.198;19.796;2022-07-03T02:25:35;96757.61;;;13.96;86.12
52935;BME280;38802;50.198;19.796;2022-07-03T02:28:13;96757.23;;;13.96;85.52
52935;BME280;38802;50.198;19.796;2022-07-03T02:30:49;96757.20;;;13.98;85.61
52935;BME280;38802;50.198;19.796;2022-07-03T02:33:21;96760.30;;;13.99;85.64
52935;BME280;38802;50.198;19.796;2022-07-03T02:35:54;96765.16;;;14.01;85.57
52935;BME280;38802;50.198;19.796;2022-07-03T02:38:23;96767.71;;;14.02;85.68
52935;BME280;38802;50.198;19.796;2022-07-03T02:43:59;96766.27;;;14.02;86.01
52935;BME280;38802;50.198;19.796;2022-07-03T02:54:44;96761.02;;;14.08;85.73
52935;BME280;38802;50.198;19.796;2022-07-03T02:57:16;96757.86;;;14.10;85.68
52935;BME280;38802;50.198;19.796;2022-07-03T03:04:58;96756.44;;;14.13;86.08
52935;BME280;38802;50.198;19.796;2022-07-03T03:07:34;96755.84;;;14.13;86.01
52935;BME280;38802;50.198;19.796;2022-07-03T03:10:03;96753.11;;;14.14;86.16
52935;BME280;38802;50.198;19.796;2022-07-03T03:12:36;96754.55;;;14.16;86.03
52935;BME280;38802;50.198;19.796;2022-07-03T03:15:05;96752.13;;;14.18;85.91
52935;BME280;38802;50.198;19.796;2022-07-03T03:17:45;96751.49;;;14.20;86.10
52935;BME280;38802;50.198;19.796;2022-07-03T03:20:22;96749.48;;;14.20;86.38
52935;BME280;38802;50.198;19.796;2022-07-03T03:23:21;96752.98;;;14.20;86.09
52935;BME280;38802;50.198;19.796;2022-07-03T03:25:52;96760.21;;;14.22;86.15
52935;BME280;38802;50.198;19.796;2022-07-03T03:28:40;96760.38;;;14.21;86.38
52935;BME280;38802;50.198;19.796;2022-07-03T03:31:09;96762.45;;;14.22;86.52
52935;BME280;38802;50.198;19.796;2022-07-03T03:33:42;96761.32;;;14.21;86.60
52935;BME280;38802;50.198;19.796;2022-07-03T03:36:13;96761.39;;;14.20;86.78
52935;BME280;38802;50.198;19.796;2022-07-03T03:38:43;96755.41;;;14.19;86.85
52935;BME280;38802;50.198;19.796;2022-07-03T03:41:12;96752.65;;;14.18;86.63
52935;BME280;38802;50.198;19.796;2022-07-03T03:43:45;96746.47;;;14.19;86.69
52935;BME280;38802;50.198;19.796;2022-07-03T03:46:13;96744.30;;;14.20;86.67
52935;BME280;38802;50.198;19.796;2022-07-03T03:48:44;96743.36;;;14.22;86.71
52935;BME280;38802;50.198;19.796;2022-07-03T03:51:12;96742.77;;;14.25;86.70
52935;BME280;38802;50.198;19.796;2022-07-03T03:53:41;96743.11;;;14.27;86.75
52935;BME280;38802;50.198;19.796;2022-07-03T03:56:12;96738.61;;;14.28;86.75
52935;BME280;38802;50.198;19.796;2022-07-03T03:58:43;96735.42;;;14.29;86.83
52935;BME280;38802;50.198;19.796;2022-07-03T04:01:12;96739.89;;;14.30;86.87
52935;BME280;38802;50.198;19.796;2022-07-03T04:03:40;96739.39;;;14.29;86.96
52935;BME280;38802;50.198;19.796;2022-07-03T04:06:09;96738.63;;;14.30;86.78
52935;BME280;38802;50.198;19.796;2022-07-03T04:08:37;96744.15;;;14.31;87.23
52935;BME280;38802;50.198;19.796;2022-07-03T04:11:06;96749.77;;;14.33;87.16
52935;BME280;38802;50.198;19.796;2022-07-03T04:13:34;96749.33;;;14.34;86.86
52935;BME280;38802;50.198;19.796;2022-07-03T04:16:03;96748.34;;;14.37;86.93
52935;BME280;38802;50.198;19.796;2022-07-03T04:18:31;96754.02;;;14.40;87.62
52935;BME280;38802;50.198;19.796;2022-07-03T04:21:00;96750.98;;;14.43;87.08
52935;BME280;38802;50.198;19.796;2022-07-03T04:23:28;96754.91;;;14.46;87.45
52935;BME280;38802;50.198;19.796;2022-07-03T04:26:04;96757.23;;;14.50;87.09
52935;BME280;38802;50.198;19.796;2022-07-03T04:28:33;96755.64;;;14.50;87.00
52935;BME280;38802;50.198;19.796;2022-07-03T04:31:01;96756.98;;;14.50;87.23
52935;BME280;38802;50.198;19.796;2022-07-03T04:33:29;96750.58;;;14.52;86.91
52935;BME280;38802;50.198;19.796;2022-07-03T04:35:57;96740.45;;;14.52;87.06
52935;BME280;38802;50.198;19.796;2022-07-03T04:38:26;96746.77;;;14.51;87.39
52935;BME280;38802;50.198;19.796;2022-07-03T04:40:54;96749.25;;;14.51;87.55
52935;BME280;38802;50.198;19.796;2022-07-03T04:43:22;96750.27;;;14.51;87.32
52935;BME280;38802;50.198;19.796;2022-07-03T04:45:50;96746.87;;;14.52;87.49
52935;BME280;38802;50.198;19.796;2022-07-03T04:48:18;96750.08;;;14.55;87.46
52935;BME280;38802;50.198;19.796;2022-07-03T04:50:47;96753.06;;;14.59;87.19
52935;BME280;38802;50.198;19.796;2022-07-03T04:53:15;96746.15;;;14.62;87.13
52935;BME280;38802;50.198;19.796;2022-07-03T04:55:43;96746.34;;;14.67;87.41
52935;BME280;38802;50.198;19.796;2022-07-03T04:58:11;96739.61;;;14.72;87.33
52935;BME280;38802;50.198;19.796;2022-07-03T05:00:40;96732.20;;;14.77;87.55
52935;BME280;38802;50.198;19.796;2022-07-03T05:03:12;96730.36;;;14.82;87.47
52935;BME280;38802;50.198;19.796;2022-07-03T05:05:40;96726.35;;;14.85;87.44
52935;BME280;38802;50.198;19.796;2022-07-03T05:08:09;96718.73;;;14.88;87.48
52935;BME280;38802;50.198;19.796;2022-07-03T05:10:37;96718.08;;;14.91;87.39
52935;BME280;38802;50.198;19.796;2022-07-03T05:13:05;96715.29;;;14.95;87.59
52935;BME280;38802;50.198;19.796;2022-07-03T05:15:33;96717.32;;;14.98;87.35
52935;BME280;38802;50.198;19.796;2022-07-03T05:18:02;96715.33;;;14.98;87.29
52935;BME280;38802;50.198;19.796;2022-07-03T05:20:30;96718.05;;;15.03;87.37
52935;BME280;38802;50.198;19.796;2022-07-03T05:23:00;96722.27;;;15.08;87.35
52935;BME280;38802;50.198;19.796;2022-07-03T05:25:30;96723.96;;;15.13;87.31
52935;BME280;38802;50.198;19.796;2022-07-03T05:28:00;96724.65;;;15.15;87.14
52935;BME280;38802;50.198;19.796;2022-07-03T05:30:28;96719.83;;;15.18;87.31
52935;BME280;38802;50.198;19.796;2022-07-03T05:32:57;96713.33;;;15.22;87.06
52935;BME280;38802;50.198;19.796;2022-07-03T05:35:25;96719.06;;;15.26;87.05
52935;BME280;38802;50.198;19.796;2022-07-03T05:37:54;96725.13;;;15.29;87.07
52935;BME280;38802;50.198;19.796;2022-07-03T05:40:22;96728.46;;;15.30;86.86
52935;BME280;38802;50.198;19.796;2022-07-03T05:42:50;96729.42;;;15.35;87.00
52935;BME280;38802;50.198;19.796;2022-07-03T05:45:22;96731.29;;;15.37;87.05
52935;BME280;38802;50.198;19.796;2022-07-03T05:47:50;96735.48;;;15.39;87.01
52935;BME280;38802;50.198;19.796;2022-07-03T05:50:19;96737.08;;;15.45;86.84
52935;BME280;38802;50.198;19.796;2022-07-03T05:52:47;96731.84;;;15.52;86.91
52935;BME280;38802;50.198;19.796;2022-07-03T05:55:15;96730.31;;;15.57;86.73
52935;BME280;38802;50.198;19.796;2022-07-03T05:57:44;96735.76;;;15.61;86.71
52935;BME280;38802;50.198;19.796;2022-07-03T06:00:12;96733.40;;;15.64;86.70
52935;BME280;38802;50.198;19.796;2022-07-03T06:02:41;96735.34;;;15.69;86.61
52935;BME280;38802;50.198;19.796;2022-07-03T06:05:09;96735.41;;;15.74;86.68
52935;BME280;38802;50.198;19.796;2022-07-03T06:07:37;96737.88;;;15.81;86.54
52935;BME280;38802;50.198;19.796;2022-07-03T06:10:06;96739.52;;;15.88;86.42
52935;BME280;38802;50.198;19.796;2022-07-03T06:12:35;96742.40;;;15.92;86.14
52935;BME280;38802;50.198;19.796;2022-07-03T06:15:04;96742.71;;;15.96;86.02
52935;BME280;38802;50.198;19.796;2022-07-03T06:17:36;96741.49;;;16.00;85.68
52935;BME280;38802;50.198;19.796;2022-07-03T06:20:06;96741.10;;;16.04;85.84
52935;BME280;38802;50.198;19.796;2022-07-03T06:22:34;96738.51;;;16.17;85.98
52935;BME280;38802;50.198;19.796;2022-07-03T06:25:03;96730.42;;;16.33;85.86
52935;BME280;38802;50.198;19.796;2022-07-03T06:27:31;96731.29;;;16.54;85.74
52935;BME280;38802;50.198;19.796;2022-07-03T06:30:00;96730.54;;;16.70;85.56
52935;BME280;38802;50.198;19.796;2022-07-03T06:32:29;96732.00;;;16.76;85.21
52935;BME280;38802;50.198;19.796;2022-07-03T06:34:57;96731.27;;;16.76;84.44
52935;BME280;38802;50.198;19.796;2022-07-03T06:37:25;96731.48;;;16.76;84.50
52935;BME280;38802;50.198;19.796;2022-07-03T06:39:53;96736.75;;;16.78;84.30
52935;BME280;38802;50.198;19.796;2022-07-03T06:42:21;96733.48;;;16.77;84.17
52935;BME280;38802;50.198;19.796;2022-07-03T06:44:50;96728.11;;;16.75;83.86
52935;BME280;38802;50.198;19.796;2022-07-03T06:47:19;96726.31;;;16.77;83.80
52935;BME280;38802;50.198;19.796;2022-07-03T06:49:47;96722.88;;;16.83;83.52
52935;BME280;38802;50.198;19.796;2022-07-03T06:52:16;96714.54;;;17.00;83.82
52935;BME280;38802;50.198;19.796;2022-07-03T06:54:44;96714.45;;;17.18;83.60
52935;BME280;38802;50.198;19.796;2022-07-03T06:57:13;96709.83;;;17.28;83.13
52935;BME280;38802;50.198;19.796;2022-07-03T06:59:42;96707.64;;;17.35;82.96
52935;BME280;38802;50.198;19.796;2022-07-03T07:02:12;96700.02;;;17.49;82.49
52935;BME280;38802;50.198;19.796;2022-07-03T07:04:41;96700.66;;;17.62;81.40
52935;BME280;38802;50.198;19.796;2022-07-03T07:07:09;96702.14;;;17.71;81.22
52935;BME280;38802;50.198;19.796;2022-07-03T07:09:37;96702.62;;;17.73;81.22
52935;BME280;38802;50.198;19.796;2022-07-03T07:12:06;96701.40;;;17.73;80.48
52935;BME280;38802;50.198;19.796;2022-07-03T07:14:34;96697.91;;;17.90;80.30
52935;BME280;38802;50.198;19.796;2022-07-03T07:17:03;96691.33;;;17.91;79.81
52935;BME280;38802;50.198;19.796;2022-07-03T07:19:31;96693.05;;;18.09;80.31
52935;BME280;38802;50.198;19.796;2022-07-03T07:22:00;96694.15;;;18.49;79.57
52935;BME280;38802;50.198;19.796;2022-07-03T07:24:29;96690.00;;;18.81;78.24
52935;BME280;38802;50.198;19.796;2022-07-03T07:26:57;96684.89;;;19.03;77.69
52935;BME280;38802;50.198;19.796;2022-07-03T07:29:27;96674.99;;;19.34;77.69
52935;BME280;38802;50.198;19.796;2022-07-03T07:31:55;96672.31;;;19.59;77.55
52935;BME280;38802;50.198;19.796;2022-07-03T07:34:25;96672.06;;;19.78;76.65
52935;BME280;38802;50.198;19.796;2022-07-03T07:36:54;96670.15;;;19.82;75.70
52935;BME280;38802;50.198;19.796;2022-07-03T07:39:22;96663.27;;;19.89;75.54
52935;BME280;38802;50.198;19.796;2022-07-03T07:41:51;96662.08;;;20.05;74.31
52935;BME280;38802;50.198;19.796;2022-07-03T07:44:19;96662.69;;;20.28;73.51
52935;BME280;38802;50.198;19.796;2022-07-03T07:46:49;96665.00;;;20.49;73.41
52935;BME280;38802;50.198;19.796;2022-07-03T07:49:17;96662.10;;;20.66;71.44
52935;BME280;38802;50.198;19.796;2022-07-03T07:51:46;96666.17;;;20.83;71.63
52935;BME280;38802;50.198;19.796;2022-07-03T07:54:15;96660.47;;;20.92;70.01
52935;BME280;38802;50.198;19.796;2022-07-03T07:56:45;96655.55;;;20.91;71.56
52935;BME280;38802;50.198;19.796;2022-07-03T07:59:13;96660.86;;;20.96;68.98
52935;BME280;38802;50.198;19.796;2022-07-03T08:01:42;96660.35;;;21.01;69.06
52935;BME280;38802;50.198;19.796;2022-07-03T08:04:29;96656.67;;;21.13;68.36
52935;BME280;38802;50.198;19.796;2022-07-03T08:07:16;96652.61;;;21.32;69.30
52935;BME280;38802;50.198;19.796;2022-07-03T08:09:44;96654.11;;;21.43;68.87
52935;BME280;38802;50.198;19.796;2022-07-03T08:12:16;96654.86;;;21.30;67.17
52935;BME280;38802;50.198;19.796;2022-07-03T08:14:44;96656.61;;;21.07;67.16
52935;BME280;38802;50.198;19.796;2022-07-03T08:17:13;96652.96;;;21.00;67.32
52935;BME280;38802;50.198;19.796;2022-07-03T08:19:41;96657.11;;;21.12;67.71
52935;BME280;38802;50.198;19.796;2022-07-03T08:22:10;96654.61;;;21.43;67.45
52935;BME280;38802;50.198;19.796;2022-07-03T08:24:38;96654.95;;;21.67;65.83
52935;BME280;38802;50.198;19.796;2022-07-03T08:27:12;96657.96;;;21.74;65.79
52935;BME280;38802;50.198;19.796;2022-07-03T08:29:41;96658.85;;;21.57;64.97
52935;BME280;38802;50.198;19.796;2022-07-03T08:32:09;96654.65;;;21.34;66.06
52935;BME280;38802;50.198;19.796;2022-07-03T08:34:38;96657.52;;;21.25;66.32
52935;BME280;38802;50.198;19.796;2022-07-03T08:37:06;96651.35;;;21.35;65.81
52935;BME280;38802;50.198;19.796;2022-07-03T08:39:35;96654.98;;;21.35;65.40
52935;BME280;38802;50.198;19.796;2022-07-03T08:42:05;96653.96;;;21.42;65.45
52935;BME280;38802;50.198;19.796;2022-07-03T08:44:35;96656.38;;;21.42;63.42
52935;BME280;38802;50.198;19.796;2022-07-03T08:47:07;96653.63;;;21.31;64.66
52935;BME280;38802;50.198;19.796;2022-07-03T08:49:40;96653.70;;;21.34;65.00
52935;BME280;38802;50.198;19.796;2022-07-03T08:52:10;96653.31;;;21.35;64.83
52935;BME280;38802;50.198;19.796;2022-07-03T08:54:59;96656.23;;;21.29;64.10
52935;BME280;38802;50.198;19.796;2022-07-03T08:57:30;96654.79;;;21.17;64.54
52935;BME280;38802;50.198;19.796;2022-07-03T09:00:03;96654.84;;;21.12;64.89
52935;BME280;38802;50.198;19.796;2022-07-03T09:02:52;96651.30;;;21.12;64.48
52935;BME280;38802;50.198;19.796;2022-07-03T09:05:22;96647.06;;;21.18;64.41
52935;BME280;38802;50.198;19.796;2022-07-03T09:07:53;96645.67;;;21.44;64.21
52935;BME280;38802;50.198;19.796;2022-07-03T09:10:22;96644.45;;;21.72;64.51
52935;BME280;38802;50.198;19.796;2022-07-03T09:12:55;96643.77;;;22.04;63.02
52935;BME280;38802;50.198;19.796;2022-07-03T09:15:23;96643.15;;;22.28;62.47
52935;BME280;38802;50.198;19.796;2022-07-03T09:18:05;96644.21;;;22.40;60.69
52935;BME280;38802;50.198;19.796;2022-07-03T09:20:39;96640.83;;;22.23;61.07
52935;BME280;38802;50.198;19.796;2022-07-03T09:23:19;96644.25;;;22.12;62.20
52935;BME280;38802;50.198;19.796;2022-07-03T09:26:02;96645.73;;;22.20;60.78
52935;BME280;38802;50.198;19.796;2022-07-03T09:28:51;96650.10;;;22.14;61.70
52935;BME280;38802;50.198;19.796;2022-07-03T09:31:24;96649.15;;;22.03;60.63
52935;BME280;38802;50.198;19.796;2022-07-03T09:36:46;96651.63;;;22.05;61.20
52935;BME280;38802;50.198;19.796;2022-07-03T09:39:24;96652.48;;;22.19;61.24
52935;BME280;38802;50.198;19.796;2022-07-03T09:47:10;96647.89;;;22.22;61.70
52935;BME280;38802;50.198;19.796;2022-07-03T09:50:23;96645.37;;;22.41;60.54
52935;BME280;38802;50.198;19.796;2022-07-03T09:52:45;96639.77;;;22.53;59.65
52935;BME280;38802;50.198;19.796;2022-07-03T09:55:16;96639.74;;;22.55;60.19
52935;BME280;38802;50.198;19.796;2022-07-03T10:02:58;96634.38;;;22.27;59.95
52935;BME280;38802;50.198;19.796;2022-07-03T10:05:31;96637.40;;;22.15;59.68
52935;BME280;38802;50.198;19.796;2022-07-03T10:10:34;96641.02;;;21.96;60.04
52935;BME280;38802;50.198;19.796;2022-07-03T10:13:03;96636.69;;;21.81;59.82
52935;BME280;38802;50.198;19.796;2022-07-03T10:15:33;96633.05;;;21.70;60.23
52935;BME280;38802;50.198;19.796;2022-07-03T10:18:08;96630.80;;;21.70;60.50
52935;BME280;38802;50.198;19.796;2022-07-03T10:23:08;96627.17;;;21.85;60.71
52935;BME280;38802;50.198;19.796;2022-07-03T10:25:41;96624.41;;;21.97;60.46
52935;BME280;38802;50.198;19.796;2022-07-03T10:28:13;96619.75;;;22.05;60.27
52935;BME280;38802;50.198;19.796;2022-07-03T10:30:43;96626.66;;;22.01;60.00
52935;BME280;38802;50.198;19.796;2022-07-03T10:33:12;96624.95;;;21.90;59.43
52935;BME280;38802;50.198;19.796;2022-07-03T10:38:42;96616.94;;;21.89;59.82
52935;BME280;38802;50.198;19.796;2022-07-03T10:41:28;96612.30;;;22.14;60.14
52935;BME280;38802;50.198;19.796;2022-07-03T10:44:16;96608.96;;;22.36;59.30
52935;BME280;38802;50.198;19.796;2022-07-03T10:47:03;96605.73;;;22.44;58.93
52935;BME280;38802;50.198;19.796;2022-07-03T10:49:35;96600.98;;;22.56;59.00
52935;BME280;38802;50.198;19.796;2022-07-03T10:52:04;96595.13;;;22.75;58.58
52935;BME280;38802;50.198;19.796;2022-07-03T10:54:33;96591.61;;;22.83;57.71
52935;BME280;38802;50.198;19.796;2022-07-03T11:02:26;96578.98;;;22.89;57.92
52935;BME280;38802;50.198;19.796;2022-07-03T11:18:17;96564.88;;;23.23;55.90
52935;BME280;38802;50.198;19.796;2022-07-03T11:20:56;96561.23;;;23.34;55.30
52935;BME280;38802;50.198;19.796;2022-07-03T11:38:52;96556.53;;;23.80;54.93
52935;BME280;38802;50.198;19.796;2022-07-03T11:41:51;96554.57;;;23.88;55.30
52935;BME280;38802;50.198;19.796;2022-07-03T11:44:19;96556.84;;;23.99;54.92
52935;BME280;38802;50.198;19.796;2022-07-03T11:46:51;96554.76;;;24.06;55.03
52935;BME280;38802;50.198;19.796;2022-07-03T11:49:22;96558.90;;;24.07;54.79
52935;BME280;38802;50.198;19.796;2022-07-03T11:51:58;96557.39;;;24.06;53.99
52935;BME280;38802;50.198;19.796;2022-07-03T11:54:32;96558.16;;;24.03;54.77
52935;BME280;38802;50.198;19.796;2022-07-03T11:57:00;96555.42;;;24.06;55.00
52935;BME280;38802;50.198;19.796;2022-07-03T11:59:29;96553.17;;;24.10;54.24
52935;BME280;38802;50.198;19.796;2022-07-03T12:02:04;96548.41;;;24.06;54.24
52935;BME280;38802;50.198;19.796;2022-07-03T12:04:32;96544.64;;;24.05;54.30
52935;BME280;38802;50.198;19.796;2022-07-03T12:07:01;96545.67;;;24.08;54.53
52935;BME280;38802;50.198;19.796;2022-07-03T12:09:31;96546.86;;;24.14;54.60
52935;BME280;38802;50.198;19.796;2022-07-03T12:12:04;96536.42;;;24.19;53.86
52935;BME280;38802;50.198;19.796;2022-07-03T12:14:43;96529.20;;;24.21;54.31
52935;BME280;38802;50.198;19.796;2022-07-03T12:19:46;96526.15;;;24.35;54.37
52935;BME280;38802;50.198;19.796;2022-07-03T12:22:34;96524.63;;;24.43;54.59
52935;BME280;38802;50.198;19.796;2022-07-03T12:25:10;96518.44;;;24.49;54.20
52935;BME280;38802;50.198;19.796;2022-07-03T12:27:40;96519.59;;;24.47;54.12
52935;BME280;38802;50.198;19.796;2022-07-03T12:30:19;96513.97;;;24.50;54.36
52935;BME280;38802;50.198;19.796;2022-07-03T12:32:54;96513.59;;;24.55;54.32
52935;BME280;38802;50.198;19.796;2022-07-03T12:35:26;96511.38;;;24.59;54.21
52935;BME280;38802;50.198;19.796;2022-07-03T12:37:55;96510.17;;;24.67;53.48
52935;BME280;38802;50.198;19.796;2022-07-03T12:40:23;96508.86;;;24.70;52.85
52935;BME280;38802;50.198;19.796;2022-07-03T12:42:53;96507.79;;;24.69;52.78
52935;BME280;38802;50.198;19.796;2022-07-03T12:45:23;96509.27;;;24.69;53.06
52935;BME280;38802;50.198;19.796;2022-07-03T12:47:59;96508.67;;;24.72;52.64
52935;BME280;38802;50.198;19.796;2022-07-03T12:50:47;96511.83;;;24.74;53.37
52935;BME280;38802;50.198;19.796;2022-07-03T12:53:32;96506.28;;;24.78;52.22
52935;BME280;38802;50.198;19.796;2022-07-03T12:56:02;96503.54;;;24.76;52.44
52935;BME280;38802;50.198;19.796;2022-07-03T12:58:34;96503.58;;;24.78;52.42
52935;BME280;38802;50.198;19.796;2022-07-03T13:01:32;96503.41;;;24.77;52.00
52935;BME280;38802;50.198;19.796;2022-07-03T13:04:07;96499.97;;;24.72;51.84
52935;BME280;38802;50.198;19.796;2022-07-03T13:06:37;96500.11;;;24.72;51.78
52935;BME280;38802;50.198;19.796;2022-07-03T13:09:05;96497.80;;;24.72;50.27
52935;BME280;38802;50.198;19.796;2022-07-03T13:11:34;96494.80;;;24.66;50.97
52935;BME280;38802;50.198;19.796;2022-07-03T13:16:37;96494.40;;;24.59;51.52
52935;BME280;38802;50.198;19.796;2022-07-03T13:19:06;96490.17;;;24.64;51.40
52935;BME280;38802;50.198;19.796;2022-07-03T13:21:35;96493.16;;;24.67;51.65
52935;BME280;38802;50.198;19.796;2022-07-03T13:24:05;96491.95;;;24.69;51.78
52935;BME280;38802;50.198;19.796;2022-07-03T13:26:33;96486.69;;;24.74;51.78
52935;BME280;38802;50.198;19.796;2022-07-03T13:29:03;96481.80;;;24.78;51.90
52935;BME280;38802;50.198;19.796;2022-07-03T13:31:31;96480.52;;;24.81;51.50
52935;BME280;38802;50.198;19.796;2022-07-03T13:34:00;96479.02;;;24.80;51.02
52935;BME280;38802;50.198;19.796;2022-07-03T13:36:29;96476.67;;;24.77;51.25
52935;BME280;38802;50.198;19.796;2022-07-03T13:38:58;96475.77;;;24.79;50.71
52935;BME280;38802;50.198;19.796;2022-07-03T13:41:29;96472.45;;;24.71;50.82
52935;BME280;38802;50.198;19.796;2022-07-03T13:43:58;96471.48;;;24.71;50.24
52935;BME280;38802;50.198;19.796;2022-07-03T13:46:26;96465.70;;;24.73;50.52
52935;BME280;38802;50.198;19.796;2022-07-03T13:48:54;96465.95;;;24.72;50.28
52935;BME280;38802;50.198;19.796;2022-07-03T13:51:22;96462.94;;;24.70;50.36
52935;BME280;38802;50.198;19.796;2022-07-03T13:53:51;96463.84;;;24.71;50.27
52935;BME280;38802;50.198;19.796;2022-07-03T13:56:19;96461.41;;;24.70;50.10
52935;BME280;38802;50.198;19.796;2022-07-03T13:58:47;96459.21;;;24.72;50.32
52935;BME280;38802;50.198;19.796;2022-07-03T14:01:19;96459.54;;;24.75;49.52
52935;BME280;38802;50.198;19.796;2022-07-03T14:03:49;96455.92;;;24.77;48.87
52935;BME280;38802;50.198;19.796;2022-07-03T14:06:17;96451.70;;;24.78;48.92
52935;BME280;38802;50.198;19.796;2022-07-03T14:08:45;96453.46;;;24.78;49.10
52935;BME280;38802;50.198;19.796;2022-07-03T14:11:13;96448.99;;;24.77;48.54
52935;BME280;38802;50.198;19.796;2022-07-03T14:13:42;96450.44;;;24.76;48.50
52935;BME280;38802;50.198;19.796;2022-07-03T14:16:11;96447.77;;;24.70;49.08
52935;BME280;38802;50.198;19.796;2022-07-03T14:18:40;96444.65;;;24.68;49.62
52935;BME280;38802;50.198;19.796;2022-07-03T14:21:08;96448.42;;;24.67;49.66
52935;BME280;38802;50.198;19.796;2022-07-03T14:23:36;96446.80;;;24.62;49.76
52935;BME280;38802;50.198;19.796;2022-07-03T14:26:05;96450.25;;;24.59;49.83
52935;BME280;38802;50.198;19.796;2022-07-03T14:28:33;96446.61;;;24.55;49.51
52935;BME280;38802;50.198;19.796;2022-07-03T14:31:19;96440.63;;;24.56;49.96
52935;BME280;38802;50.198;19.796;2022-07-03T14:33:54;96435.37;;;24.62;49.90
52935;BME280;38802;50.198;19.796;2022-07-03T14:36:22;96439.36;;;24.66;49.95